Time;durP1;ratioP1;P1;durP2;ratioP2;P2;SDS_P1;SDS_P2;PMS_P1;PMS_P2;Temp;Humidity;BMP_temperature;BMP_pressure;BME280_temperature;BME280_humidity;BME280_pressure;Samples;Min_cycle;Max_cycle;Signal;HPM_P1;HPM_P2
2021/10/30 00:02:01;;;;;;;9.15;6.88;;;10.70;93.30;;;;;;5013615;28;20025;-81
2021/10/30 00:04:27;;;;;;;8.03;6.80;;;10.70;93.30;;;;;;5013803;28;20022;-83
2021/10/30 00:06:53;;;;;;;9.75;7.28;;;10.70;93.30;;;;;;5013264;28;20061;-81
2021/10/30 00:09:20;;;;;;;11.27;7.32;;;10.70;93.50;;;;;;5013412;28;20018;-82
2021/10/30 00:11:46;;;;;;;12.15;7.95;;;10.70;93.10;;;;;;5012484;28;20553;-82
2021/10/30 00:14:12;;;;;;;9.77;7.43;;;10.70;93.10;;;;;;4995566;28;20077;-84
2021/10/30 00:16:38;;;;;;;10.45;6.82;;;10.70;93.10;;;;;;5013337;28;20029;-83
2021/10/30 00:19:04;;;;;;;11.77;8.00;;;10.70;93.10;;;;;;5013454;28;20509;-84
2021/10/30 00:21:30;;;;;;;9.25;7.53;;;10.70;93.10;;;;;;5013419;28;20502;-84
2021/10/30 00:23:56;;;;;;;9.27;7.45;;;10.70;93.00;;;;;;5013259;28;20037;-83
2021/10/30 00:26:22;;;;;;;8.60;6.65;;;10.60;92.90;;;;;;5013279;28;20088;-82
2021/10/30 00:28:48;;;;;;;13.60;7.45;;;10.60;92.90;;;;;;5012398;28;20048;-85
2021/10/30 00:31:15;;;;;;;8.70;6.65;;;10.60;92.90;;;;;;5013076;28;20030;-82
2021/10/30 00:33:41;;;;;;;9.38;7.32;;;10.60;93.00;;;;;;5013203;28;20030;-82
2021/10/30 00:36:08;;;;;;;8.27;7.47;;;10.60;92.90;;;;;;5012913;28;20046;-82
2021/10/30 00:38:38;;;;;;;9.80;6.97;;;10.60;92.90;;;;;;5013335;28;20470;-84
2021/10/30 00:41:05;;;;;;;10.48;6.90;;;10.60;93.10;;;;;;4995709;28;20474;-84
2021/10/30 00:43:34;;;;;;;8.95;7.43;;;10.70;92.90;;;;;;5013092;28;20033;-83
2021/10/30 00:46:00;;;;;;;7.55;5.90;;;10.60;92.70;;;;;;5013123;28;20101;-85
2021/10/30 00:48:26;;;;;;;8.88;5.90;;;10.70;92.70;;;;;;5013254;28;20097;-83
2021/10/30 00:50:58;;;;;;;9.55;7.28;;;10.70;92.70;;;;;;5014455;28;20026;-84
2021/10/30 00:53:31;;;;;;;10.48;7.32;;;10.70;92.80;;;;;;5019445;28;20044;-83
2021/10/30 00:56:00;;;;;;;10.68;7.22;;;10.70;92.70;;;;;;5019287;28;20489;-85
2021/10/30 00:58:29;;;;;;;9.32;6.90;;;10.70;92.70;;;;;;5013151;28;20030;-84
2021/10/30 01:00:54;;;;;;;9.13;7.05;;;10.70;92.70;;;;;;5012185;28;20026;-85
2021/10/30 01:03:21;;;;;;;8.23;6.57;;;10.70;92.70;;;;;;5013156;28;20030;-83
2021/10/30 01:05:46;;;;;;;8.73;6.53;;;10.70;92.70;;;;;;5012136;28;20022;-84
2021/10/30 01:08:13;;;;;;;9.52;6.53;;;10.70;92.70;;;;;;5013080;28;20382;-84
2021/10/30 01:10:40;;;;;;;8.00;6.22;;;10.70;92.60;;;;;;4995656;28;20030;-83
2021/10/30 01:13:06;;;;;;;8.13;6.97;;;10.70;92.60;;;;;;4994277;28;20026;-85
2021/10/30 01:15:32;;;;;;;9.20;6.43;;;10.70;92.50;;;;;;4978980;28;20038;-84
2021/10/30 01:17:57;;;;;;;8.13;6.50;;;10.80;92.50;;;;;;4994295;28;20436;-83
2021/10/30 01:20:26;;;;;;;7.20;6.07;;;10.80;92.50;;;;;;4993641;28;20085;-85
2021/10/30 01:23:00;;;;;;;8.60;6.00;;;10.80;92.40;;;;;;4994889;28;20022;-83
2021/10/30 01:25:26;;;;;;;12.10;6.05;;;10.80;92.30;;;;;;4995126;28;20026;-83
2021/10/30 01:27:53;;;;;;;7.43;5.72;;;10.80;92.30;;;;;;4994002;28;20022;-84
2021/10/30 01:30:21;;;;;;;7.63;6.03;;;10.80;92.30;;;;;;4994085;28;20026;-84
2021/10/30 01:33:02;;;;;;;8.32;6.70;;;10.80;92.30;;;;;;5001685;28;20452;-83
2021/10/30 01:35:28;;;;;;;7.22;5.60;;;10.80;92.30;;;;;;4996937;28;20487;-84
2021/10/30 01:37:55;;;;;;;7.20;6.22;;;10.80;92.60;;;;;;5013471;28;20018;-84
2021/10/30 01:40:21;;;;;;;9.27;6.77;;;10.80;92.30;;;;;;5015753;28;20026;-85
2021/10/30 01:43:01;;;;;;;6.50;5.10;;;10.80;92.30;;;;;;4999300;28;20476;-84
2021/10/30 01:45:29;;;;;;;10.07;5.82;;;10.80;92.20;;;;;;5016524;28;20625;-85
2021/10/30 01:47:56;;;;;;;7.45;5.65;;;10.80;92.20;;;;;;5016562;28;20022;-84
2021/10/30 01:50:22;;;;;;;8.67;6.20;;;10.80;92.10;;;;;;5016380;28;20022;-84
2021/10/30 01:52:50;;;;;;;7.88;5.30;;;10.80;92.20;;;;;;5016464;28;20369;-83
2021/10/30 01:55:18;;;;;;;8.07;5.93;;;10.90;92.20;;;;;;5016197;28;20452;-84
2021/10/30 01:57:46;;;;;;;7.85;5.30;;;10.90;92.10;;;;;;5016464;28;20462;-85
2021/10/30 02:00:12;;;;;;;6.82;6.15;;;10.80;92.10;;;;;;5016443;28;20030;-84
2021/10/30 02:02:38;;;;;;;7.47;6.50;;;10.90;92.10;;;;;;5016592;28;20026;-84
2021/10/30 02:05:05;;;;;;;7.78;5.25;;;10.90;92.10;;;;;;5016229;28;20130;-86
2021/10/30 02:07:31;;;;;;;6.72;5.35;;;10.90;92.10;;;;;;5016265;28;20029;-83
2021/10/30 02:09:57;;;;;;;5.70;5.07;;;10.90;92.00;;;;;;5017166;28;20038;-83
2021/10/30 02:12:23;;;;;;;6.95;5.72;;;10.90;92.00;;;;;;5018646;28;20025;-84
2021/10/30 02:14:49;;;;;;;6.22;5.20;;;10.90;92.00;;;;;;5015898;28;20061;-84
2021/10/30 02:17:15;;;;;;;8.05;5.53;;;10.90;92.00;;;;;;4998298;28;20026;-84
2021/10/30 02:19:40;;;;;;;6.90;6.20;;;10.90;92.00;;;;;;5015853;28;20065;-84
2021/10/30 02:22:06;;;;;;;9.85;6.40;;;10.90;92.00;;;;;;5016359;28;20104;-84
2021/10/30 02:24:33;;;;;;;8.05;6.00;;;11.00;92.00;;;;;;5015962;28;20076;-84
2021/10/30 02:26:59;;;;;;;8.32;6.40;;;11.00;92.00;;;;;;5016316;28;20395;-85
2021/10/30 02:29:25;;;;;;;8.35;5.68;;;11.00;91.90;;;;;;5015819;28;20431;-84
2021/10/30 02:31:50;;;;;;;9.32;5.95;;;11.00;91.90;;;;;;5015907;28;20104;-85
2021/10/30 02:34:16;;;;;;;8.75;5.35;;;11.00;91.80;;;;;;5015559;28;20033;-82
2021/10/30 02:36:42;;;;;;;7.95;5.85;;;11.00;91.80;;;;;;5015597;28;20451;-82
2021/10/30 02:39:10;;;;;;;7.40;5.78;;;11.00;91.80;;;;;;5015983;28;20049;-82
2021/10/30 02:41:38;;;;;;;5.90;5.28;;;11.10;91.80;;;;;;5016432;28;20081;-83
2021/10/30 02:44:05;;;;;;;7.13;5.47;;;11.00;91.80;;;;;;5016675;28;20030;-82
2021/10/30 02:46:31;;;;;;;6.73;5.90;;;11.00;91.70;;;;;;5015350;28;20018;-82
2021/10/30 02:48:57;;;;;;;7.80;5.45;;;11.00;91.70;;;;;;5015379;28;20105;-83
2021/10/30 02:51:23;;;;;;;6.05;5.07;;;11.10;91.70;;;;;;5013844;28;20108;-83
2021/10/30 02:53:50;;;;;;;7.07;6.25;;;11.10;91.80;;;;;;5014775;28;20108;-83
2021/10/30 02:56:16;;;;;;;8.48;6.45;;;11.10;91.70;;;;;;5014699;28;20018;-81
2021/10/30 02:58:42;;;;;;;6.53;5.60;;;11.10;91.60;;;;;;4998562;28;20395;-84
2021/10/30 03:01:08;;;;;;;6.63;5.78;;;11.10;91.60;;;;;;5015495;28;20030;-83
2021/10/30 03:03:34;;;;;;;8.32;5.63;;;11.10;91.60;;;;;;5015016;28;20030;-82
2021/10/30 03:06:00;;;;;;;8.27;5.63;;;11.10;91.50;;;;;;5014821;28;20022;-83
2021/10/30 03:08:25;;;;;;;9.13;5.63;;;11.10;91.50;;;;;;4997030;28;20395;-82
2021/10/30 03:10:52;;;;;;;6.65;5.25;;;11.10;91.60;;;;;;5014867;28;20072;-84
2021/10/30 03:13:17;;;;;;;7.00;6.18;;;11.10;91.50;;;;;;5014867;28;20160;-82
2021/10/30 03:15:43;;;;;;;7.05;5.97;;;11.10;91.50;;;;;;4997665;28;20116;-82
2021/10/30 03:18:09;;;;;;;7.30;5.45;;;11.20;91.50;;;;;;5017189;28;20026;-83
2021/10/30 03:20:35;;;;;;;6.22;4.90;;;11.10;91.40;;;;;;5015610;28;20065;-82
2021/10/30 03:23:01;;;;;;;7.13;5.55;;;11.10;91.40;;;;;;5014611;28;20042;-82
2021/10/30 03:25:27;;;;;;;5.60;4.93;;;11.10;91.40;;;;;;5014740;28;20022;-82
2021/10/30 03:27:54;;;;;;;6.13;5.53;;;11.20;91.40;;;;;;5014625;28;20022;-83
2021/10/30 03:30:21;;;;;;;6.70;5.68;;;11.20;91.40;;;;;;5014470;28;20026;-81
2021/10/30 03:32:46;;;;;;;6.33;5.50;;;11.20;91.30;;;;;;5014437;28;20025;-83
2021/10/30 03:35:12;;;;;;;8.15;5.70;;;11.20;91.20;;;;;;5014393;28;20780;-83
2021/10/30 03:37:38;;;;;;;8.73;5.57;;;11.30;91.30;;;;;;5013083;28;20077;-82
2021/10/30 03:40:06;;;;;;;7.80;5.32;;;11.20;91.20;;;;;;5014486;28;20030;-82
2021/10/30 03:42:33;;;;;;;7.10;5.22;;;11.30;91.20;;;;;;5012931;28;20337;-81
2021/10/30 03:44:59;;;;;;;6.53;5.30;;;11.30;91.20;;;;;;5014461;28;20554;-82
2021/10/30 03:47:25;;;;;;;7.53;6.70;;;11.30;91.10;;;;;;5014033;28;20030;-83
2021/10/30 03:49:52;;;;;;;9.75;5.93;;;11.30;91.10;;;;;;5014170;28;20443;-83
2021/10/30 03:52:18;;;;;;;8.02;5.95;;;11.30;91.10;;;;;;5014163;28;20077;-83
2021/10/30 03:54:44;;;;;;;8.65;6.07;;;11.30;91.10;;;;;;5013881;28;20069;-83
2021/10/30 03:57:10;;;;;;;9.70;6.45;;;11.30;91.10;;;;;;5013996;28;20026;-84
2021/10/30 03:59:36;;;;;;;8.80;6.47;;;11.30;91.10;;;;;;5014035;28;20029;-84
2021/10/30 04:02:04;;;;;;;8.73;5.97;;;11.30;91.10;;;;;;5013665;28;20026;-84
2021/10/30 04:04:30;;;;;;;8.27;6.53;;;11.40;91.10;;;;;;5013913;28;20112;-85
2021/10/30 04:06:56;;;;;;;13.30;6.40;;;11.40;91.10;;;;;;5014406;28;20054;-83
2021/10/30 04:09:24;;;;;;;9.38;6.53;;;11.40;91.10;;;;;;5013725;28;20041;-83
2021/10/30 04:11:50;;;;;;;10.32;6.18;;;11.40;91.10;;;;;;5014054;28;20052;-82
2021/10/30 04:14:17;;;;;;;10.65;6.10;;;11.40;91.00;;;;;;5013668;28;20121;-82
2021/10/30 04:16:43;;;;;;;7.90;6.57;;;11.40;91.00;;;;;;5013766;28;20022;-83
2021/10/30 04:19:09;;;;;;;7.93;6.55;;;11.40;91.00;;;;;;5013885;28;20022;-84
2021/10/30 04:21:34;;;;;;;8.38;6.13;;;11.40;91.00;;;;;;5013736;28;20368;-81
2021/10/30 04:24:01;;;;;;;7.95;6.82;;;11.50;91.00;;;;;;5013885;28;20022;-82
2021/10/30 04:26:27;;;;;;;11.02;7.30;;;11.40;91.00;;;;;;4996063;28;20081;-79
2021/10/30 04:28:54;;;;;;;9.75;6.95;;;11.40;91.00;;;;;;5014356;28;20021;-83
2021/10/30 04:31:23;;;;;;;6.78;5.57;;;11.40;91.00;;;;;;5014038;28;20109;-85
2021/10/30 04:33:52;;;;;;;10.80;6.88;;;11.30;91.00;;;;;;5014363;28;20030;-85
2021/10/30 04:36:19;;;;;;;7.70;6.65;;;11.30;91.10;;;;;;5013637;28;20028;-84
2021/10/30 04:38:46;;;;;;;7.88;6.22;;;11.30;91.20;;;;;;5013546;28;20113;-83
2021/10/30 04:41:13;;;;;;;8.40;7.15;;;11.20;91.20;;;;;;5013520;28;20125;-85
2021/10/30 04:43:39;;;;;;;9.60;6.50;;;11.20;91.30;;;;;;5013378;28;20038;-84
2021/10/30 04:46:07;;;;;;;9.35;6.47;;;11.20;91.30;;;;;;5013288;28;20026;-83
2021/10/30 04:48:35;;;;;;;7.88;6.38;;;11.20;91.40;;;;;;5013631;28;20039;-83
2021/10/30 04:51:01;;;;;;;9.27;6.30;;;11.20;91.40;;;;;;5018569;28;20085;-83
2021/10/30 04:53:27;;;;;;;10.68;6.88;;;11.30;91.40;;;;;;5014676;28;20104;-85
2021/10/30 04:55:53;;;;;;;8.60;6.70;;;11.30;91.30;;;;;;5013033;28;20380;-85
2021/10/30 04:58:19;;;;;;;12.43;6.85;;;11.30;91.20;;;;;;5013366;28;20088;-84
2021/10/30 05:00:45;;;;;;;8.32;6.57;;;11.30;91.20;;;;;;5014755;28;20025;-82
2021/10/30 05:03:10;;;;;;;12.00;6.43;;;11.20;91.30;;;;;;5013103;28;20435;-83
2021/10/30 05:05:36;;;;;;;9.43;6.50;;;11.10;91.40;;;;;;5013299;28;20052;-84
2021/10/30 05:08:02;;;;;;;8.13;6.78;;;11.00;91.50;;;;;;5012971;28;20380;-85
2021/10/30 05:10:28;;;;;;;7.68;6.18;;;10.90;91.70;;;;;;5013123;28;20034;-85
2021/10/30 05:12:54;;;;;;;9.63;7.22;;;10.80;91.90;;;;;;5013237;28;20030;-85
2021/10/30 05:15:19;;;;;;;8.35;6.97;;;10.70;92.00;;;;;;5016303;28;20057;-85
2021/10/30 05:17:45;;;;;;;12.43;6.65;;;10.70;92.20;;;;;;5018869;28;20022;-83
2021/10/30 05:20:12;;;;;;;10.60;7.30;;;10.60;92.40;;;;;;5018877;28;20021;-85
2021/10/30 05:22:37;;;;;;;8.55;7.18;;;10.60;92.50;;;;;;5017351;28;20026;-87
2021/10/30 05:25:03;;;;;;;7.72;6.93;;;10.60;92.50;;;;;;5017226;28;20041;-85
2021/10/30 05:27:29;;;;;;;8.88;6.35;;;10.60;92.60;;;;;;5016116;28;20030;-84
2021/10/30 05:29:55;;;;;;;9.98;6.45;;;10.60;92.80;;;;;;5016771;28;20052;-85
2021/10/30 05:32:21;;;;;;;9.38;6.53;;;10.60;92.90;;;;;;5016572;28;20026;-84
2021/10/30 05:34:47;;;;;;;9.35;7.72;;;10.60;93.00;;;;;;5016914;28;20050;-85
2021/10/30 05:37:13;;;;;;;9.43;6.85;;;10.60;93.00;;;;;;5015420;28;20022;-85
2021/10/30 05:39:40;;;;;;;9.55;6.60;;;10.60;93.10;;;;;;5016244;28;20506;-85
2021/10/30 05:42:08;;;;;;;9.70;6.30;;;10.70;93.10;;;;;;5016426;28;20471;-85
2021/10/30 05:44:34;;;;;;;9.50;7.50;;;10.70;93.10;;;;;;5016507;28;20042;-83
2021/10/30 05:47:00;;;;;;;9.05;7.13;;;10.70;93.00;;;;;;5012198;28;20069;-85
2021/10/30 05:49:26;;;;;;;8.00;7.03;;;10.70;93.10;;;;;;5016352;28;20034;-84
2021/10/30 05:51:52;;;;;;;9.88;7.18;;;10.80;93.10;;;;;;5016395;28;20018;-84
2021/10/30 05:54:18;;;;;;;7.68;6.05;;;10.80;93.10;;;;;;5015924;28;20050;-83
2021/10/30 05:56:44;;;;;;;8.82;5.93;;;10.80;93.40;;;;;;5016365;28;20093;-83
2021/10/30 05:59:10;;;;;;;11.82;8.75;;;10.80;93.10;;;;;;5015908;28;20432;-84
2021/10/30 06:01:36;;;;;;;11.40;7.15;;;10.80;93.10;;;;;;5015986;28;20053;-85
2021/10/30 06:04:02;;;;;;;9.75;6.50;;;10.90;93.10;;;;;;5016338;28;20030;-84
2021/10/30 06:06:28;;;;;;;9.55;7.10;;;11.00;93.00;;;;;;5017174;28;20018;-85
2021/10/30 06:08:53;;;;;;;8.82;6.78;;;11.00;93.00;;;;;;5016560;28;20238;-84
2021/10/30 06:11:19;;;;;;;7.80;6.72;;;11.00;92.90;;;;;;4998775;28;20026;-83
2021/10/30 06:13:45;;;;;;;11.45;7.35;;;11.00;92.90;;;;;;5014620;28;20129;-84
2021/10/30 06:16:11;;;;;;;8.23;6.43;;;11.00;92.90;;;;;;5014707;28;20033;-84
2021/10/30 06:18:37;;;;;;;7.38;6.13;;;11.00;92.90;;;;;;5015679;28;20030;-83
2021/10/30 06:21:03;;;;;;;9.52;6.93;;;11.00;92.90;;;;;;5016716;28;20029;-85
2021/10/30 06:23:29;;;;;;;9.20;6.57;;;11.10;92.90;;;;;;5014634;28;20033;-84
2021/10/30 06:25:54;;;;;;;9.60;7.00;;;11.10;92.80;;;;;;5017381;28;20026;-86
2021/10/30 06:28:20;;;;;;;9.20;6.60;;;11.10;92.80;;;;;;5016179;28;20028;-84
2021/10/30 06:30:46;;;;;;;9.63;6.65;;;11.10;92.80;;;;;;5015744;28;20073;-84
2021/10/30 06:33:12;;;;;;;8.38;6.18;;;11.10;92.90;;;;;;5015711;28;20030;-84
2021/10/30 06:35:38;;;;;;;10.75;7.78;;;11.20;92.80;;;;;;5015792;28;20116;-84
2021/10/30 06:38:04;;;;;;;8.48;7.10;;;11.20;92.80;;;;;;5015831;28;20029;-81
2021/10/30 06:40:30;;;;;;;13.32;7.88;;;11.20;92.80;;;;;;5015605;28;20415;-83
2021/10/30 06:42:56;;;;;;;11.40;7.30;;;11.20;92.90;;;;;;5015187;28;20364;-82
2021/10/30 06:45:23;;;;;;;9.55;7.20;;;11.20;92.90;;;;;;5015511;28;20158;-83
2021/10/30 06:47:49;;;;;;;11.98;8.55;;;11.20;92.90;;;;;;5015216;28;20026;-84
2021/10/30 06:50:21;;;;;;;8.68;7.32;;;11.30;92.90;;;;;;5014078;28;20483;-82
2021/10/30 06:52:49;;;;;;;9.57;8.57;;;11.30;92.80;;;;;;5015364;28;20383;-82
2021/10/30 06:55:16;;;;;;;12.00;8.80;;;11.40;92.90;;;;;;5015345;28;20085;-84
2021/10/30 06:57:42;;;;;;;10.25;7.60;;;11.40;92.80;;;;;;5015501;28;20447;-85
2021/10/30 07:00:09;;;;;;;10.77;8.63;;;11.40;92.80;;;;;;5015244;28;20049;-84
2021/10/30 07:02:35;;;;;;;10.63;8.68;;;11.40;92.80;;;;;;5016764;28;20018;-83
2021/10/30 07:05:02;;;;;;;9.82;8.15;;;11.50;92.80;;;;;;5015130;28;20030;-83
2021/10/30 07:07:27;;;;;;;12.50;9.02;;;11.60;92.80;;;;;;5015390;28;20131;-82
2021/10/30 07:09:58;;;;;;;13.02;8.20;;;11.70;92.70;;;;;;5015185;28;20526;-85
2021/10/30 07:12:25;;;;;;;10.18;8.23;;;11.70;92.50;;;;;;5014741;28;20040;-84
2021/10/30 07:14:51;;;;;;;10.05;8.60;;;11.90;92.50;;;;;;5014608;28;20030;-85
2021/10/30 07:17:17;;;;;;;14.55;8.93;;;12.00;92.20;;;;;;5013199;28;20026;-83
2021/10/30 07:19:43;;;;;;;12.82;9.05;;;12.00;91.90;;;;;;5015784;28;20018;-83
2021/10/30 07:22:08;;;;;;;10.50;8.68;;;12.10;91.80;;;;;;5015470;28;20022;-85
2021/10/30 07:24:34;;;;;;;11.25;8.73;;;12.10;91.60;;;;;;5017102;28;20025;-84
2021/10/30 07:27:00;;;;;;;12.18;8.75;;;12.10;91.70;;;;;;5015065;28;20022;-84
2021/10/30 07:29:26;;;;;;;11.50;8.48;;;12.20;91.70;;;;;;5014586;28;20033;-85
2021/10/30 07:31:52;;;;;;;14.15;10.13;;;12.30;91.70;;;;;;5014460;28;20034;-84
2021/10/30 07:34:17;;;;;;;10.35;8.30;;;12.30;91.50;;;;;;5014324;28;20078;-86
2021/10/30 07:36:43;;;;;;;14.25;9.55;;;12.40;91.40;;;;;;5014269;28;20029;-85
2021/10/30 07:39:09;;;;;;;11.77;9.90;;;12.40;91.20;;;;;;5014804;28;20030;-86
2021/10/30 07:41:35;;;;;;;11.30;8.45;;;12.50;91.10;;;;;;5014540;28;20068;-85
2021/10/30 07:44:01;;;;;;;12.75;9.00;;;12.70;91.00;;;;;;5014556;28;20022;-84
2021/10/30 07:46:27;;;;;;;10.27;8.60;;;12.80;90.70;;;;;;5014525;28;20025;-85
2021/10/30 07:48:53;;;;;;;9.90;8.68;;;12.90;90.40;;;;;;5015915;28;20468;-84
2021/10/30 07:51:19;;;;;;;11.10;8.77;;;13.00;90.10;;;;;;5014454;28;20475;-85
2021/10/30 07:53:45;;;;;;;11.98;9.73;;;12.90;90.10;;;;;;5013757;28;20088;-85
2021/10/30 07:56:12;;;;;;;12.95;8.50;;;13.00;90.20;;;;;;5014031;28;20022;-83
2021/10/30 07:58:40;;;;;;;13.07;10.18;;;13.20;90.00;;;;;;5014420;28;20172;-82
2021/10/30 08:01:06;;;;;;;15.30;8.75;;;13.40;89.10;;;;;;5014610;28;20471;-83
2021/10/30 08:03:32;;;;;;;10.80;8.38;;;14.10;87.80;;;;;;5014260;28;20026;-85
2021/10/30 08:05:58;;;;;;;11.27;8.70;;;14.70;85.30;;;;;;5014839;28;20026;-88
2021/10/30 08:08:23;;;;;;;9.25;8.25;;;15.30;83.20;;;;;;5015672;28;20040;-87
2021/10/30 08:10:49;;;;;;;10.38;9.05;;;15.90;80.40;;;;;;5014307;28;20021;-86
2021/10/30 08:13:16;;;;;;;15.35;8.88;;;16.20;78.40;;;;;;5014496;28;20073;-86
2021/10/30 08:15:41;;;;;;;10.10;9.02;;;16.50;76.90;;;;;;5009624;28;20133;-84
2021/10/30 08:18:07;;;;;;;8.07;7.18;;;16.70;76.40;;;;;;4995384;28;20035;-83
2021/10/30 08:20:35;;;;;;;10.88;9.77;;;17.00;74.70;;;;;;4994487;28;20019;-86
2021/10/30 08:23:00;;;;;;;;;;;17.10;73.40;;;;;;4995093;28;20031;-84
2021/10/30 08:25:27;;;;;;;11.40;8.98;;;17.10;74.90;;;;;;4995289;28;19938;-82
2021/10/30 08:27:54;;;;;;;12.45;8.55;;;16.70;73.60;;;;;;4995599;28;20022;-84
2021/10/30 08:30:20;;;;;;;16.02;10.20;;;16.30;73.80;;;;;;4994443;28;20077;-83
2021/10/30 08:32:46;;;;;;;14.35;9.85;;;15.90;75.40;;;;;;4998097;28;20483;-83
2021/10/30 08:35:12;;;;;;;15.70;11.30;;;15.60;76.40;;;;;;5001676;28;20022;-83
2021/10/30 08:37:39;;;;;;;17.35;11.68;;;15.40;77.00;;;;;;5010072;28;20482;-85
2021/10/30 08:40:10;;;;;;;20.40;12.20;;;15.60;77.50;;;;;;5009828;28;20120;-85
2021/10/30 08:42:36;;;;;;;15.35;10.93;;;15.90;77.00;;;;;;5013371;28;20475;-82
2021/10/30 08:45:05;;;;;;;18.42;10.30;;;16.30;76.00;;;;;;5012080;28;20038;-84
2021/10/30 08:47:32;;;;;;;13.43;9.95;;;16.90;74.30;;;;;;5013520;28;20018;-83
2021/10/30 08:49:59;;;;;;;10.85;9.70;;;17.50;72.60;;;;;;5010785;28;20024;-84
2021/10/30 08:52:25;;;;;;;13.27;10.83;;;18.30;70.20;;;;;;5013084;28;20073;-83
2021/10/30 08:54:50;;;;;;;11.00;8.38;;;18.80;67.70;;;;;;4994972;28;20415;-84
2021/10/30 08:57:16;;;;;;;13.30;8.95;;;19.00;66.20;;;;;;5013047;28;20022;-84
2021/10/30 08:59:45;;;;;;;11.48;10.27;;;18.90;65.90;;;;;;5013209;28;20430;-85
2021/10/30 09:02:33;;;;;;;13.63;11.35;;;18.60;65.90;;;;;;5012948;28;20054;-86
2021/10/30 09:05:14;;;;;;;15.63;11.25;;;18.90;66.00;;;;;;5013517;28;20069;-86
2021/10/30 09:07:41;;;;;;;12.35;9.23;;;19.60;64.50;;;;;;5013225;28;20097;-84
2021/10/30 09:10:20;;;;;;;12.10;9.15;;;20.00;61.80;;;;;;5012646;28;20025;-83
2021/10/30 09:12:54;;;;;;;10.57;8.02;;;20.10;61.30;;;;;;5013040;28;20026;-85
2021/10/30 09:15:42;;;;;;;10.10;8.63;;;20.30;60.90;;;;;;5013102;28;20041;-84
2021/10/30 09:18:22;;;;;;;15.38;9.82;;;20.40;61.10;;;;;;5016783;28;20018;-84
2021/10/30 09:20:49;;;;;;;12.13;8.20;;;20.50;59.90;;;;;;4999212;28;20022;-83
2021/10/30 09:23:16;;;;;;;14.20;9.13;;;20.70;58.90;;;;;;5010283;28;20029;-83
2021/10/30 09:25:51;;;;;;;13.10;9.35;;;20.30;58.70;;;;;;5001759;28;20105;-88
2021/10/30 09:28:22;;;;;;;9.65;8.35;;;20.00;59.40;;;;;;5003641;28;20022;-88
2021/10/30 09:31:02;;;;;;;12.38;8.75;;;19.40;60.20;;;;;;5012095;28;20018;-85
2021/10/30 09:33:33;;;;;;;9.48;8.43;;;18.60;61.70;;;;;;5001604;28;20022;-89
2021/10/30 09:36:09;;;;;;;12.40;8.90;;;17.80;64.20;;;;;;5007537;28;20088;-82
2021/10/30 09:38:38;;;;;;;12.07;9.48;;;18.20;64.90;;;;;;5005923;28;20032;-87
2021/10/30 09:41:25;;;;;;;10.13;8.80;;;18.70;64.00;;;;;;4994898;28;20503;-86
2021/10/30 09:44:06;;;;;;;9.27;7.60;;;19.60;61.80;;;;;;5012414;28;20050;-85
2021/10/30 09:46:35;;;;;;;10.68;7.65;;;20.00;59.80;;;;;;5000858;28;20474;-86
2021/10/30 09:49:16;;;;;;;13.10;8.63;;;20.30;58.70;;;;;;5013275;28;20073;-86
2021/10/30 09:51:47;;;;;;;9.82;7.80;;;20.70;58.20;;;;;;5012574;28;20109;-84
2021/10/30 09:54:49;;;;;;;11.95;8.55;;;21.30;56.20;;;;;;5008069;28;20043;-84
2021/10/30 09:57:29;;;;;;;10.35;7.88;;;22.10;55.60;;;;;;4990260;28;20043;-85
2021/10/30 10:00:01;;;;;;;9.13;7.70;;;23.20;52.50;;;;;;4991697;28;20391;-84
2021/10/30 10:02:30;;;;;;;11.60;8.40;;;24.00;50.10;;;;;;4996336;28;20036;-87
2021/10/30 10:04:59;;;;;;;10.45;7.90;;;23.80;49.10;;;;;;4993625;28;20031;-86
2021/10/30 10:07:28;;;;;;;13.55;7.93;;;23.90;48.90;;;;;;4971757;28;20022;-82
2021/10/30 10:09:56;;;;;;;15.05;9.10;;;23.00;48.80;;;;;;4997140;28;20034;-82
2021/10/30 10:12:22;;;;;;;11.05;7.97;;;22.10;51.00;;;;;;4996541;28;20014;-81
2021/10/30 10:14:50;;;;;;;10.05;8.18;;;21.10;52.70;;;;;;4996393;28;20037;-81
2021/10/30 10:17:16;;;;;;;;;;;20.00;55.00;;;;;;4995194;28;20081;-80
2021/10/30 10:19:42;;;;;;;13.80;8.97;;;19.10;56.30;;;;;;4994823;28;19905;-83
2021/10/30 10:22:09;;;;;;;12.48;8.95;;;18.30;59.40;;;;;;4996197;28;20029;-81
2021/10/30 10:24:37;;;;;;;13.10;8.77;;;17.70;61.30;;;;;;4996434;28;20117;-82
2021/10/30 10:27:04;;;;;;;;;;;17.20;63.30;;;;;;4988051;28;20030;-81
2021/10/30 10:29:38;;;;;;;10.70;8.60;;;16.70;63.20;;;;;;4996689;28;20287;-81
2021/10/30 10:32:30;;;;;;;12.60;9.32;;;16.30;65.80;;;;;;4999691;28;20504;-82
2021/10/30 10:35:06;;;;;;;10.75;8.60;;;16.00;67.00;;;;;;4993764;28;20034;-81
2021/10/30 10:37:32;;;;;;;17.02;10.20;;;15.80;68.60;;;;;;5015404;28;20068;-81
2021/10/30 10:40:03;;;;;;;12.45;9.25;;;15.50;69.50;;;;;;5015473;28;20029;-82
2021/10/30 10:42:35;;;;;;;13.45;9.18;;;15.30;70.60;;;;;;5015824;28;20049;-81
2021/10/30 10:45:10;;;;;;;12.27;10.32;;;15.20;71.30;;;;;;5007888;28;20034;-80
2021/10/30 10:47:36;;;;;;;13.73;9.52;;;15.20;71.80;;;;;;4998911;28;20085;-81
2021/10/30 10:50:19;;;;;;;15.63;9.40;;;15.10;72.00;;;;;;4996258;28;20027;-79
2021/10/30 10:53:12;;;;;;;11.43;8.00;;;15.00;72.30;;;;;;4996529;28;20027;-79
2021/10/30 10:55:47;;;;;;;10.73;8.55;;;14.90;72.60;;;;;;5005696;28;20133;-78
2021/10/30 10:58:14;;;;;;;14.95;9.25;;;14.80;73.30;;;;;;5015176;28;20045;-79
2021/10/30 11:01:07;;;;;;;10.77;8.83;;;14.70;73.40;;;;;;5015007;28;20026;-78
2021/10/30 11:03:41;;;;;;;14.65;8.85;;;14.60;73.80;;;;;;5007369;28;20267;-80
2021/10/30 11:06:07;;;;;;;12.50;10.02;;;14.60;74.60;;;;;;5015190;28;20033;-80
2021/10/30 11:08:36;;;;;;;11.15;8.60;;;14.60;74.60;;;;;;5014512;28;20022;-79
2021/10/30 11:11:25;;;;;;;12.60;8.38;;;14.60;74.60;;;;;;5014544;28;20367;-79
2021/10/30 11:14:00;;;;;;;11.25;8.45;;;14.60;74.70;;;;;;5014397;28;20030;-81
2021/10/30 11:16:41;;;;;;;11.07;8.85;;;14.50;75.00;;;;;;5014823;28;20093;-80
2021/10/30 11:19:21;;;;;;;16.02;9.50;;;14.50;75.30;;;;;;5015344;28;20108;-80
2021/10/30 11:21:50;;;;;;;16.55;10.80;;;14.50;75.60;;;;;;4996168;28;20527;-80
2021/10/30 11:24:22;;;;;;;13.10;11.45;;;14.50;75.60;;;;;;4989734;28;20073;-80
2021/10/30 11:26:56;;;;;;;12.45;8.70;;;14.40;75.70;;;;;;4995887;28;20082;-80
2021/10/30 11:29:23;;;;;;;10.15;8.55;;;14.30;75.60;;;;;;5009258;28;20088;-81
2021/10/30 11:32:04;;;;;;;18.75;10.30;;;14.30;75.80;;;;;;5008057;28;20022;-79
2021/10/30 11:34:31;;;;;;;15.10;9.05;;;14.20;76.10;;;;;;4994565;28;20019;-80
2021/10/30 11:36:57;;;;;;;15.40;9.45;;;14.20;76.60;;;;;;4994642;28;20483;-81
2021/10/30 11:39:25;;;;;;;13.20;9.70;;;14.10;76.60;;;;;;4994839;28;20023;-79
2021/10/30 11:41:50;;;;;;;;;;;14.10;77.00;;;;;;4994724;28;20540;-78
2021/10/30 11:44:19;;;;;;;15.40;10.63;;;14.10;76.50;;;;;;4994683;28;20290;-80
2021/10/30 11:46:50;;;;;;;13.27;9.93;;;14.00;77.30;;;;;;5003866;28;20374;-85
2021/10/30 11:49:31;;;;;;;12.40;10.15;;;14.10;77.50;;;;;;5014190;28;20060;-81
2021/10/30 11:52:03;;;;;;;16.60;11.40;;;14.00;77.30;;;;;;5014080;28;20018;-81
2021/10/30 11:54:30;;;;;;;17.92;11.20;;;14.00;77.50;;;;;;4996544;28;20057;-81
2021/10/30 11:56:56;;;;;;;14.80;10.70;;;14.00;77.70;;;;;;4996580;28;20060;-81
2021/10/30 11:59:21;;;;;;;13.48;9.95;;;13.90;77.60;;;;;;5013625;28;20748;-79
2021/10/30 12:01:49;;;;;;;14.82;11.13;;;13.90;77.50;;;;;;5007901;28;20101;-78
2021/10/30 12:04:20;;;;;;;13.15;10.18;;;13.90;77.90;;;;;;4994141;28;20043;-78
2021/10/30 12:06:53;;;;;;;16.58;10.82;;;13.90;77.90;;;;;;4994304;28;20030;-78
2021/10/30 12:09:26;;;;;;;15.32;11.02;;;13.90;78.30;;;;;;4994546;28;20049;-79
2021/10/30 12:12:04;;;;;;;14.25;10.77;;;13.90;78.70;;;;;;4994526;28;20014;-81
2021/10/30 12:14:31;;;;;;;17.02;12.43;;;13.90;78.50;;;;;;5006251;28;20431;-81
2021/10/30 12:17:00;;;;;;;22.75;17.40;;;13.80;78.60;;;;;;5013369;28;20026;-80
2021/10/30 12:19:32;;;;;;;17.17;13.07;;;13.80;78.70;;;;;;5010876;28;20088;-81
2021/10/30 12:22:17;;;;;;;19.67;12.55;;;13.80;78.80;;;;;;5013406;28;20048;-80
2021/10/30 12:24:44;;;;;;;16.95;11.95;;;13.80;78.80;;;;;;5012430;28;20121;-80
2021/10/30 12:27:10;;;;;;;12.87;10.93;;;13.70;79.10;;;;;;5013409;28;20466;-80
2021/10/30 12:29:44;;;;;;;14.30;10.35;;;13.70;79.10;;;;;;5013465;28;20030;-80
2021/10/30 12:32:12;;;;;;;16.27;11.13;;;13.70;79.30;;;;;;5000716;28;20498;-81
2021/10/30 12:34:56;;;;;;;15.48;11.00;;;13.60;79.50;;;;;;4993557;28;20034;-80
2021/10/30 12:37:31;;;;;;;20.27;13.57;;;13.60;79.70;;;;;;4993403;28;20057;-80
2021/10/30 12:40:07;;;;;;;23.80;16.58;;;13.60;79.80;;;;;;4993896;28;20072;-82
2021/10/30 12:42:35;;;;;;;31.40;21.33;;;13.60;79.90;;;;;;5004813;28;20040;-83
2021/10/30 12:45:01;;;;;;;22.00;17.45;;;13.50;80.20;;;;;;5000904;28;20103;-79
2021/10/30 12:47:30;;;;;;;21.50;14.77;;;13.50;80.20;;;;;;5009156;28;20494;-81